sensor_id;sensor_type;location;lat;lon;timestamp;pressure;altitude;pressure_sealevel;temperature;humidity
76216;BME280;65010;50.190;18.930;2024-02-14T00:00:49;98849.78;;;4.04;58.58
76216;BME280;65010;50.190;18.930;2024-02-14T00:03:56;98846.13;;;4.07;58.66
76216;BME280;65010;50.190;18.930;2024-02-14T00:07:02;98843.50;;;4.07;58.97
76216;BME280;65010;50.190;18.930;2024-02-14T00:10:14;98845.53;;;4.03;59.39
76216;BME280;65010;50.190;18.930;2024-02-14T00:13:20;98847.91;;;4.06;59.46
76216;BME280;65010;50.190;18.930;2024-02-14T00:16:27;98850.13;;;4.11;59.36
76216;BME280;65010;50.190;18.930;2024-02-14T00:19:34;98860.41;;;4.13;59.33
76216;BME280;65010;50.190;18.930;2024-02-14T00:22:44;98856.63;;;4.17;59.30
76216;BME280;65010;50.190;18.930;2024-02-14T00:25:52;98851.06;;;4.21;59.32
76216;BME280;65010;50.190;18.930;2024-02-14T00:28:59;98852.47;;;4.25;59.23
76216;BME280;65010;50.190;18.930;2024-02-14T00:32:05;98854.97;;;4.27;59.13
76216;BME280;65010;50.190;18.930;2024-02-14T00:35:12;98865.13;;;4.30;58.99
76216;BME280;65010;50.190;18.930;2024-02-14T00:38:18;98861.84;;;4.28;58.81
76216;BME280;65010;50.190;18.930;2024-02-14T00:41:27;98872.25;;;4.28;58.75
76216;BME280;65010;50.190;18.930;2024-02-14T00:44:33;98868.69;;;4.29;58.89
76216;BME280;65010;50.190;18.930;2024-02-14T00:47:40;98864.44;;;4.28;58.84
76216;BME280;65010;50.190;18.930;2024-02-14T00:50:46;98863.59;;;4.27;58.80
76216;BME280;65010;50.190;18.930;2024-02-14T00:53:53;98854.25;;;4.25;58.66
76216;BME280;65010;50.190;18.930;2024-02-14T00:57:01;98867.97;;;4.27;58.64
76216;BME280;65010;50.190;18.930;2024-02-14T01:00:09;98865.47;;;4.25;58.66
76216;BME280;65010;50.190;18.930;2024-02-14T01:03:15;98870.69;;;4.25;58.58
76216;BME280;65010;50.190;18.930;2024-02-14T01:06:22;98867.53;;;4.22;58.54
76216;BME280;65010;50.190;18.930;2024-02-14T01:09:28;98845.97;;;4.20;58.34
76216;BME280;65010;50.190;18.930;2024-02-14T01:12:37;98846.13;;;4.18;58.43
76216;BME280;65010;50.190;18.930;2024-02-14T01:15:43;98840.06;;;4.18;58.14
76216;BME280;65010;50.190;18.930;2024-02-14T01:18:50;98844.56;;;4.16;58.38
76216;BME280;65010;50.190;18.930;2024-02-14T01:21:56;98846.00;;;4.08;58.68
76216;BME280;65010;50.190;18.930;2024-02-14T01:25:04;98849.09;;;4.02;58.59
76216;BME280;65010;50.190;18.930;2024-02-14T01:28:15;98837.38;;;3.97;58.79
76216;BME280;65010;50.190;18.930;2024-02-14T01:31:22;98841.16;;;3.93;58.95
76216;BME280;65010;50.190;18.930;2024-02-14T01:34:28;98836.44;;;3.86;59.03
76216;BME280;65010;50.190;18.930;2024-02-14T01:37:35;98836.63;;;3.83;59.17
76216;BME280;65010;50.190;18.930;2024-02-14T01:40:42;98840.41;;;3.79;58.86
76216;BME280;65010;50.190;18.930;2024-02-14T01:43:52;98835.38;;;3.78;58.90
76216;BME280;65010;50.190;18.930;2024-02-14T01:46:59;98841.38;;;3.78;58.95
76216;BME280;65010;50.190;18.930;2024-02-14T01:50:07;98841.50;;;3.77;58.82
76216;BME280;65010;50.190;18.930;2024-02-14T01:53:14;98842.44;;;3.76;59.04
76216;BME280;65010;50.190;18.930;2024-02-14T01:56:21;98844.09;;;3.77;58.94
76216;BME280;65010;50.190;18.930;2024-02-14T01:59:30;98835.38;;;3.78;58.87
76216;BME280;65010;50.190;18.930;2024-02-14T02:02:38;98831.69;;;3.80;59.10
76216;BME280;65010;50.190;18.930;2024-02-14T02:05:48;98841.28;;;3.80;59.25
76216;BME280;65010;50.190;18.930;2024-02-14T02:08:56;98843.03;;;3.79;59.45
76216;BME280;65010;50.190;18.930;2024-02-14T02:12:02;98840.09;;;3.84;59.75
76216;BME280;65010;50.190;18.930;2024-02-14T02:15:12;98835.47;;;3.87;59.56
76216;BME280;65010;50.190;18.930;2024-02-14T02:18:18;98843.16;;;3.89;59.40
76216;BME280;65010;50.190;18.930;2024-02-14T02:21:25;98838.56;;;3.93;59.63
76216;BME280;65010;50.190;18.930;2024-02-14T02:24:33;98829.81;;;3.94;59.68
76216;BME280;65010;50.190;18.930;2024-02-14T02:27:40;98836.31;;;3.99;59.43
76216;BME280;65010;50.190;18.930;2024-02-14T02:30:46;98829.81;;;4.05;59.47
76216;BME280;65010;50.190;18.930;2024-02-14T02:33:52;98830.63;;;4.05;59.13
76216;BME280;65010;50.190;18.930;2024-02-14T02:36:58;98841.03;;;4.05;59.15
76216;BME280;65010;50.190;18.930;2024-02-14T02:40:08;98850.03;;;4.01;58.82
76216;BME280;65010;50.190;18.930;2024-02-14T02:43:16;98854.06;;;3.94;58.84
76216;BME280;65010;50.190;18.930;2024-02-14T02:46:25;98848.97;;;3.93;59.18
76216;BME280;65010;50.190;18.930;2024-02-14T02:49:32;98847.44;;;3.90;59.21
76216;BME280;65010;50.190;18.930;2024-02-14T02:52:40;98850.84;;;3.90;59.44
76216;BME280;65010;50.190;18.930;2024-02-14T02:55:49;98854.16;;;3.93;59.44
76216;BME280;65010;50.190;18.930;2024-02-14T02:58:57;98859.25;;;3.94;59.52
76216;BME280;65010;50.190;18.930;2024-02-14T03:02:05;98862.56;;;3.96;59.60
76216;BME280;65010;50.190;18.930;2024-02-14T03:05:15;98861.75;;;3.96;59.67
76216;BME280;65010;50.190;18.930;2024-02-14T03:08:26;98854.75;;;3.96;59.68
76216;BME280;65010;50.190;18.930;2024-02-14T03:11:36;98856.28;;;3.99;59.29
76216;BME280;65010;50.190;18.930;2024-02-14T03:14:43;98860.09;;;3.95;59.19
76216;BME280;65010;50.190;18.930;2024-02-14T03:17:50;98863.88;;;3.90;59.13
76216;BME280;65010;50.190;18.930;2024-02-14T03:20:56;98866.69;;;3.87;59.15
76216;BME280;65010;50.190;18.930;2024-02-14T03:24:03;98869.63;;;3.83;59.35
76216;BME280;65010;50.190;18.930;2024-02-14T03:27:14;98873.28;;;3.80;59.19
76216;BME280;65010;50.190;18.930;2024-02-14T03:30:21;98871.06;;;3.76;59.27
76216;BME280;65010;50.190;18.930;2024-02-14T03:33:29;98882.63;;;3.72;58.95
76216;BME280;65010;50.190;18.930;2024-02-14T03:36:37;98880.72;;;3.62;59.00
76216;BME280;65010;50.190;18.930;2024-02-14T03:39:43;98882.81;;;3.57;59.07
76216;BME280;65010;50.190;18.930;2024-02-14T03:42:52;98887.44;;;3.54;59.36
76216;BME280;65010;50.190;18.930;2024-02-14T03:45:58;98888.72;;;3.48;59.66
76216;BME280;65010;50.190;18.930;2024-02-14T03:49:05;98887.06;;;3.47;59.77
76216;BME280;65010;50.190;18.930;2024-02-14T03:52:11;98896.41;;;3.49;59.77
76216;BME280;65010;50.190;18.930;2024-02-14T03:55:17;98889.78;;;3.45;59.58
76216;BME280;65010;50.190;18.930;2024-02-14T03:58:28;98888.47;;;3.40;59.53
76216;BME280;65010;50.190;18.930;2024-02-14T04:01:36;98895.56;;;3.38;59.30
76216;BME280;65010;50.190;18.930;2024-02-14T04:04:42;98896.50;;;3.37;59.17
76216;BME280;65010;50.190;18.930;2024-02-14T04:07:49;98896.84;;;3.32;59.41
76216;BME280;65010;50.190;18.930;2024-02-14T04:10:56;98897.91;;;3.29;59.34
76216;BME280;65010;50.190;18.930;2024-02-14T04:14:06;98897.28;;;3.26;59.37
76216;BME280;65010;50.190;18.930;2024-02-14T04:17:12;98896.69;;;3.22;59.36
76216;BME280;65010;50.190;18.930;2024-02-14T04:20:18;98903.88;;;3.19;59.19
76216;BME280;65010;50.190;18.930;2024-02-14T04:23:24;98895.50;;;3.15;59.15
76216;BME280;65010;50.190;18.930;2024-02-14T04:26:31;98894.03;;;3.11;59.19
76216;BME280;65010;50.190;18.930;2024-02-14T04:29:39;98902.91;;;3.08;59.49
76216;BME280;65010;50.190;18.930;2024-02-14T04:32:46;98904.06;;;3.04;59.33
76216;BME280;65010;50.190;18.930;2024-02-14T04:35:52;98899.31;;;2.98;59.24
76216;BME280;65010;50.190;18.930;2024-02-14T04:38:58;98909.72;;;2.98;59.06
76216;BME280;65010;50.190;18.930;2024-02-14T04:42:04;98903.91;;;2.95;59.32
76216;BME280;65010;50.190;18.930;2024-02-14T04:45:14;98908.50;;;2.91;59.39
76216;BME280;65010;50.190;18.930;2024-02-14T04:48:20;98904.44;;;2.87;59.40
76216;BME280;65010;50.190;18.930;2024-02-14T04:51:28;98906.47;;;2.83;59.44
76216;BME280;65010;50.190;18.930;2024-02-14T04:54:34;98910.22;;;2.79;59.91
76216;BME280;65010;50.190;18.930;2024-02-14T04:57:40;98902.63;;;2.76;59.83
76216;BME280;65010;50.190;18.930;2024-02-14T05:00:49;98912.81;;;2.79;59.60
76216;BME280;65010;50.190;18.930;2024-02-14T05:03:55;98905.03;;;2.79;59.47
76216;BME280;65010;50.190;18.930;2024-02-14T05:07:01;98908.66;;;2.77;59.98
76216;BME280;65010;50.190;18.930;2024-02-14T05:10:08;98898.53;;;2.61;59.63
76216;BME280;65010;50.190;18.930;2024-02-14T05:13:14;98899.22;;;2.52;59.88
76216;BME280;65010;50.190;18.930;2024-02-14T05:16:24;98905.56;;;2.35;60.45
76216;BME280;65010;50.190;18.930;2024-02-14T05:19:29;98908.00;;;2.25;60.74
76216;BME280;65010;50.190;18.930;2024-02-14T05:22:36;98918.69;;;2.20;60.88
76216;BME280;65010;50.190;18.930;2024-02-14T05:25:42;98909.34;;;2.18;61.21
76216;BME280;65010;50.190;18.930;2024-02-14T05:28:49;98909.34;;;2.18;61.30
76216;BME280;65010;50.190;18.930;2024-02-14T05:31:57;98905.22;;;2.15;61.39
76216;BME280;65010;50.190;18.930;2024-02-14T05:35:04;98905.31;;;2.14;61.18
76216;BME280;65010;50.190;18.930;2024-02-14T05:38:12;98909.78;;;2.12;61.18
76216;BME280;65010;50.190;18.930;2024-02-14T05:41:18;98910.72;;;2.10;61.35
76216;BME280;65010;50.190;18.930;2024-02-14T05:44:25;98906.56;;;2.08;61.24
76216;BME280;65010;50.190;18.930;2024-02-14T05:47:36;98911.97;;;2.05;61.51
76216;BME280;65010;50.190;18.930;2024-02-14T05:50:42;98910.63;;;1.99;61.70
76216;BME280;65010;50.190;18.930;2024-02-14T05:53:48;98909.19;;;1.95;61.94
76216;BME280;65010;50.190;18.930;2024-02-14T05:56:54;98920.28;;;1.97;62.39
76216;BME280;65010;50.190;18.930;2024-02-14T06:00:01;98918.31;;;2.01;62.55
76216;BME280;65010;50.190;18.930;2024-02-14T06:03:15;98918.91;;;2.04;62.63
76216;BME280;65010;50.190;18.930;2024-02-14T06:06:24;98924.72;;;2.08;62.41
76216;BME280;65010;50.190;18.930;2024-02-14T06:09:30;98922.22;;;2.06;62.00
76216;BME280;65010;50.190;18.930;2024-02-14T06:12:36;98922.22;;;2.06;62.12
76216;BME280;65010;50.190;18.930;2024-02-14T06:15:43;98928.34;;;2.05;62.23
76216;BME280;65010;50.190;18.930;2024-02-14T06:18:52;98928.44;;;2.04;62.21
76216;BME280;65010;50.190;18.930;2024-02-14T06:21:58;98937.91;;;2.05;62.07
76216;BME280;65010;50.190;18.930;2024-02-14T06:25:06;98944.97;;;2.03;62.00
76216;BME280;65010;50.190;18.930;2024-02-14T06:28:12;98946.53;;;1.93;61.81
76216;BME280;65010;50.190;18.930;2024-02-14T06:31:19;98944.41;;;1.72;62.70
76216;BME280;65010;50.190;18.930;2024-02-14T06:34:27;98941.50;;;1.51;63.29
76216;BME280;65010;50.190;18.930;2024-02-14T06:37:34;98950.50;;;1.45;64.10
76216;BME280;65010;50.190;18.930;2024-02-14T06:40:53;98953.00;;;1.47;64.39
76216;BME280;65010;50.190;18.930;2024-02-14T06:44:00;98945.22;;;1.47;64.62
76216;BME280;65010;50.190;18.930;2024-02-14T06:47:06;98949.28;;;1.51;64.57
76216;BME280;65010;50.190;18.930;2024-02-14T06:50:16;98950.00;;;1.53;64.46
76216;BME280;65010;50.190;18.930;2024-02-14T06:53:22;98955.28;;;1.52;64.49
76216;BME280;65010;50.190;18.930;2024-02-14T06:56:29;98948.47;;;1.50;64.92
76216;BME280;65010;50.190;18.930;2024-02-14T06:59:35;98955.91;;;1.55;64.98
76216;BME280;65010;50.190;18.930;2024-02-14T07:02:42;98949.41;;;1.62;65.20
76216;BME280;65010;50.190;18.930;2024-02-14T07:05:52;98954.91;;;1.70;65.16
76216;BME280;65010;50.190;18.930;2024-02-14T07:08:59;98950.63;;;1.82;65.43
76216;BME280;65010;50.190;18.930;2024-02-14T07:12:05;98943.94;;;1.93;65.50
76216;BME280;65010;50.190;18.930;2024-02-14T07:15:13;98944.81;;;2.04;65.60
76216;BME280;65010;50.190;18.930;2024-02-14T07:18:18;98944.00;;;2.17;65.49
76216;BME280;65010;50.190;18.930;2024-02-14T07:21:28;98944.09;;;2.28;65.43
76216;BME280;65010;50.190;18.930;2024-02-14T07:24:35;98949.38;;;2.39;65.41
76216;BME280;65010;50.190;18.930;2024-02-14T07:27:42;98951.19;;;2.50;65.11
76216;BME280;65010;50.190;18.930;2024-02-14T07:30:48;98952.22;;;2.60;65.33
76216;BME280;65010;50.190;18.930;2024-02-14T07:33:54;98944.88;;;2.78;64.95
76216;BME280;65010;50.190;18.930;2024-02-14T07:37:04;98942.75;;;2.96;64.99
76216;BME280;65010;50.190;18.930;2024-02-14T07:40:11;98944.97;;;3.14;64.74
76216;BME280;65010;50.190;18.930;2024-02-14T07:43:19;98941.13;;;3.30;64.67
76216;BME280;65010;50.190;18.930;2024-02-14T07:46:26;98944.03;;;3.50;64.27
76216;BME280;65010;50.190;18.930;2024-02-14T07:49:34;98951.97;;;3.71;64.28
76216;BME280;65010;50.190;18.930;2024-02-14T07:52:44;98947.81;;;4.04;63.95
76216;BME280;65010;50.190;18.930;2024-02-14T07:55:50;98946.25;;;4.35;63.69
76216;BME280;65010;50.190;18.930;2024-02-14T07:58:58;98941.34;;;4.76;63.11
76216;BME280;65010;50.190;18.930;2024-02-14T08:02:04;98944.22;;;5.05;62.37
76216;BME280;65010;50.190;18.930;2024-02-14T08:05:11;98958.28;;;5.46;62.18
76216;BME280;65010;50.190;18.930;2024-02-14T08:08:19;98952.13;;;5.89;61.38
76216;BME280;65010;50.190;18.930;2024-02-14T08:11:30;98953.81;;;6.30;60.31
76216;BME280;65010;50.190;18.930;2024-02-14T08:14:36;98949.53;;;6.60;59.74
76216;BME280;65010;50.190;18.930;2024-02-14T08:17:42;98946.56;;;6.84;58.24
76216;BME280;65010;50.190;18.930;2024-02-14T08:20:50;98954.84;;;7.09;58.15
76216;BME280;65010;50.190;18.930;2024-02-14T08:23:59;98951.97;;;7.32;56.85
76216;BME280;65010;50.190;18.930;2024-02-14T08:27:06;98956.06;;;7.54;54.80
76216;BME280;65010;50.190;18.930;2024-02-14T08:30:13;98958.66;;;7.73;53.69
76216;BME280;65010;50.190;18.930;2024-02-14T08:33:19;98959.91;;;7.88;52.97
76216;BME280;65010;50.190;18.930;2024-02-14T08:36:26;98963.44;;;7.97;51.81
76216;BME280;65010;50.190;18.930;2024-02-14T08:39:35;98963.28;;;8.08;52.01
76216;BME280;65010;50.190;18.930;2024-02-14T08:42:41;98956.72;;;8.32;51.47
76216;BME280;65010;50.190;18.930;2024-02-14T08:45:47;98954.72;;;8.54;51.09
76216;BME280;65010;50.190;18.930;2024-02-14T08:48:54;98954.03;;;8.79;50.92
76216;BME280;65010;50.190;18.930;2024-02-14T08:52:02;98951.13;;;9.00;49.09
76216;BME280;65010;50.190;18.930;2024-02-14T08:55:12;98950.78;;;9.13;48.84
76216;BME280;65010;50.190;18.930;2024-02-14T08:58:21;98943.78;;;9.40;48.46
76216;BME280;65010;50.190;18.930;2024-02-14T09:01:28;98938.91;;;9.71;48.09
76216;BME280;65010;50.190;18.930;2024-02-14T09:04:34;98945.41;;;10.03;47.11
76216;BME280;65010;50.190;18.930;2024-02-14T09:07:40;98934.09;;;10.45;47.61
76216;BME280;65010;50.190;18.930;2024-02-14T09:10:49;98925.38;;;10.95;45.55
76216;BME280;65010;50.190;18.930;2024-02-14T09:13:56;98934.97;;;11.37;44.83
76216;BME280;65010;50.190;18.930;2024-02-14T09:17:06;98928.06;;;11.61;43.46
76216;BME280;65010;50.190;18.930;2024-02-14T09:20:13;98930.03;;;11.75;42.39
76216;BME280;65010;50.190;18.930;2024-02-14T09:23:19;98938.00;;;12.15;42.86
76216;BME280;65010;50.190;18.930;2024-02-14T09:26:28;98926.97;;;12.59;41.47
76216;BME280;65010;50.190;18.930;2024-02-14T09:29:37;98922.34;;;12.92;39.89
76216;BME280;65010;50.190;18.930;2024-02-14T09:32:43;98930.75;;;13.42;40.86
76216;BME280;65010;50.190;18.930;2024-02-14T09:35:50;98931.03;;;13.85;39.39
76216;BME280;65010;50.190;18.930;2024-02-14T09:38:57;98927.69;;;14.06;38.00
76216;BME280;65010;50.190;18.930;2024-02-14T09:42:09;98931.41;;;14.12;36.75
76216;BME280;65010;50.190;18.930;2024-02-14T09:45:20;98926.69;;;14.22;37.21
76216;BME280;65010;50.190;18.930;2024-02-14T09:48:30;98929.50;;;14.35;35.90
76216;BME280;65010;50.190;18.930;2024-02-14T09:51:44;98932.66;;;14.60;35.97
76216;BME280;65010;50.190;18.930;2024-02-14T09:54:52;98930.41;;;14.94;34.73
76216;BME280;65010;50.190;18.930;2024-02-14T09:58:05;98927.13;;;14.92;35.20
76216;BME280;65010;50.190;18.930;2024-02-14T10:01:11;98922.47;;;14.94;34.63
76216;BME280;65010;50.190;18.930;2024-02-14T10:04:27;98926.13;;;15.14;34.22
76216;BME280;65010;50.190;18.930;2024-02-14T10:07:40;98917.34;;;15.57;35.15
76216;BME280;65010;50.190;18.930;2024-02-14T10:10:47;98916.16;;;15.88;33.58
76216;BME280;65010;50.190;18.930;2024-02-14T10:13:57;98916.13;;;16.16;32.93
76216;BME280;65010;50.190;18.930;2024-02-14T10:17:07;98911.50;;;16.73;33.22
76216;BME280;65010;50.190;18.930;2024-02-14T10:20:17;98908.31;;;17.04;31.83
76216;BME280;65010;50.190;18.930;2024-02-14T10:23:27;98902.38;;;17.15;30.62
76216;BME280;65010;50.190;18.930;2024-02-14T10:26:33;98903.44;;;17.34;29.88
76216;BME280;65010;50.190;18.930;2024-02-14T10:29:42;98899.16;;;17.60;29.62
76216;BME280;65010;50.190;18.930;2024-02-14T10:32:48;98894.03;;;17.72;29.46
76216;BME280;65010;50.190;18.930;2024-02-14T10:35:55;98895.47;;;17.74;28.54
76216;BME280;65010;50.190;18.930;2024-02-14T10:39:05;98897.53;;;17.72;28.96
76216;BME280;65010;50.190;18.930;2024-02-14T10:42:15;98897.53;;;17.72;28.01
76216;BME280;65010;50.190;18.930;2024-02-14T10:45:24;98889.94;;;17.82;28.00
76216;BME280;65010;50.190;18.930;2024-02-14T10:48:31;98894.53;;;18.20;28.35
76216;BME280;65010;50.190;18.930;2024-02-14T10:51:47;98875.34;;;18.63;26.99
76216;BME280;65010;50.190;18.930;2024-02-14T10:54:58;98872.31;;;18.92;26.60
76216;BME280;65010;50.190;18.930;2024-02-14T10:58:08;98867.38;;;18.95;26.34
76216;BME280;65010;50.190;18.930;2024-02-14T11:01:20;98860.91;;;19.10;26.52
76216;BME280;65010;50.190;18.930;2024-02-14T11:04:27;98869.13;;;19.08;25.73
76216;BME280;65010;50.190;18.930;2024-02-14T11:07:34;98864.22;;;18.73;25.95
76216;BME280;65010;50.190;18.930;2024-02-14T11:10:39;98870.25;;;18.55;26.45
76216;BME280;65010;50.190;18.930;2024-02-14T11:13:52;98866.47;;;18.31;26.01
76216;BME280;65010;50.190;18.930;2024-02-14T11:17:02;98865.50;;;18.19;26.29
76216;BME280;65010;50.190;18.930;2024-02-14T11:20:17;98872.53;;;17.80;26.75
76216;BME280;65010;50.190;18.930;2024-02-14T11:23:24;98874.78;;;17.90;26.77
76216;BME280;65010;50.190;18.930;2024-02-14T11:26:45;98858.41;;;17.93;27.08
76216;BME280;65010;50.190;18.930;2024-02-14T11:29:54;98858.81;;;17.96;26.79
76216;BME280;65010;50.190;18.930;2024-02-14T11:33:17;98851.13;;;18.27;27.12
76216;BME280;65010;50.190;18.930;2024-02-14T11:36:25;98859.72;;;18.22;26.28
76216;BME280;65010;50.190;18.930;2024-02-14T11:39:33;98846.88;;;18.19;26.25
76216;BME280;65010;50.190;18.930;2024-02-14T11:42:40;98847.88;;;18.24;26.50
76216;BME280;65010;50.190;18.930;2024-02-14T11:45:47;98834.28;;;18.39;26.08
76216;BME280;65010;50.190;18.930;2024-02-14T11:48:57;98833.91;;;18.74;26.44
76216;BME280;65010;50.190;18.930;2024-02-14T11:52:04;98833.22;;;19.11;26.61
76216;BME280;65010;50.190;18.930;2024-02-14T11:55:10;98827.06;;;19.42;25.34
76216;BME280;65010;50.190;18.930;2024-02-14T11:58:20;98824.63;;;19.59;24.81
76216;BME280;65010;50.190;18.930;2024-02-14T12:01:26;98817.00;;;19.62;25.09
76216;BME280;65010;50.190;18.930;2024-02-14T12:04:37;98822.94;;;19.83;24.88
76216;BME280;65010;50.190;18.930;2024-02-14T12:07:43;98817.66;;;19.95;24.61
76216;BME280;65010;50.190;18.930;2024-02-14T12:10:50;98815.28;;;20.05;24.97
76216;BME280;65010;50.190;18.930;2024-02-14T12:13:56;98815.69;;;19.90;24.50
76216;BME280;65010;50.190;18.930;2024-02-14T12:17:05;98808.34;;;19.86;24.31
76216;BME280;65010;50.190;18.930;2024-02-14T12:20:14;98803.84;;;19.68;24.07
76216;BME280;65010;50.190;18.930;2024-02-14T12:23:21;98809.09;;;19.74;24.88
76216;BME280;65010;50.190;18.930;2024-02-14T12:26:30;98812.34;;;19.76;24.26
76216;BME280;65010;50.190;18.930;2024-02-14T12:29:37;98805.00;;;19.53;24.13
76216;BME280;65010;50.190;18.930;2024-02-14T12:32:43;98804.69;;;19.43;24.66
76216;BME280;65010;50.190;18.930;2024-02-14T12:35:53;98800.34;;;19.23;24.81
76216;BME280;65010;50.190;18.930;2024-02-14T12:39:01;98800.91;;;19.51;25.37
76216;BME280;65010;50.190;18.930;2024-02-14T12:42:09;98801.00;;;19.81;25.20
76216;BME280;65010;50.190;18.930;2024-02-14T12:45:16;98789.19;;;20.07;24.58
76216;BME280;65010;50.190;18.930;2024-02-14T12:48:23;98797.41;;;20.42;23.99
76216;BME280;65010;50.190;18.930;2024-02-14T12:51:33;98795.38;;;20.68;23.88
76216;BME280;65010;50.190;18.930;2024-02-14T12:54:42;98787.84;;;20.77;23.45
76216;BME280;65010;50.190;18.930;2024-02-14T12:57:49;98784.56;;;20.63;23.22
76216;BME280;65010;50.190;18.930;2024-02-14T13:00:56;98792.50;;;20.81;23.63
76216;BME280;65010;50.190;18.930;2024-02-14T13:04:03;98786.28;;;21.11;23.12
76216;BME280;65010;50.190;18.930;2024-02-14T13:07:15;98790.72;;;21.17;22.48
76216;BME280;65010;50.190;18.930;2024-02-14T13:10:24;98789.09;;;21.05;22.39
76216;BME280;65010;50.190;18.930;2024-02-14T13:13:30;98795.56;;;20.97;22.48
76216;BME280;65010;50.190;18.930;2024-02-14T13:16:36;98789.59;;;20.83;22.56
76216;BME280;65010;50.190;18.930;2024-02-14T13:19:43;98785.03;;;20.72;22.67
76216;BME280;65010;50.190;18.930;2024-02-14T13:22:54;98787.72;;;20.60;22.99
76216;BME280;65010;50.190;18.930;2024-02-14T13:26:01;98781.75;;;20.46;22.95
76216;BME280;65010;50.190;18.930;2024-02-14T13:29:07;98777.97;;;20.35;23.32
76216;BME280;65010;50.190;18.930;2024-02-14T13:32:14;98781.53;;;19.80;23.35
76216;BME280;65010;50.190;18.930;2024-02-14T13:35:20;98781.22;;;19.33;24.24
76216;BME280;65010;50.190;18.930;2024-02-14T13:38:29;98782.97;;;19.14;24.86
76216;BME280;65010;50.190;18.930;2024-02-14T13:41:35;98780.09;;;18.65;24.94
76216;BME280;65010;50.190;18.930;2024-02-14T13:44:42;98779.25;;;18.33;25.42
76216;BME280;65010;50.190;18.930;2024-02-14T13:47:48;98774.41;;;17.78;26.07
76216;BME280;65010;50.190;18.930;2024-02-14T13:50:55;98781.19;;;17.48;26.92
76216;BME280;65010;50.190;18.930;2024-02-14T13:54:05;98773.06;;;17.36;27.30
76216;BME280;65010;50.190;18.930;2024-02-14T13:57:12;98774.06;;;17.35;27.61
76216;BME280;65010;50.190;18.930;2024-02-14T14:00:22;98770.81;;;17.26;27.73
76216;BME280;65010;50.190;18.930;2024-02-14T14:03:28;98770.63;;;17.01;27.82
76216;BME280;65010;50.190;18.930;2024-02-14T14:06:35;98771.22;;;16.76;28.04
76216;BME280;65010;50.190;18.930;2024-02-14T14:09:45;98772.75;;;16.31;28.38
76216;BME280;65010;50.190;18.930;2024-02-14T14:12:51;98777.63;;;16.14;29.03
76216;BME280;65010;50.190;18.930;2024-02-14T14:15:58;98778.16;;;15.89;29.18
76216;BME280;65010;50.190;18.930;2024-02-14T14:19:04;98775.78;;;15.73;29.54
76216;BME280;65010;50.190;18.930;2024-02-14T14:22:12;98771.41;;;15.58;29.90
76216;BME280;65010;50.190;18.930;2024-02-14T14:25:21;98772.16;;;15.39;30.17
76216;BME280;65010;50.190;18.930;2024-02-14T14:28:27;98776.69;;;15.17;30.71
76216;BME280;65010;50.190;18.930;2024-02-14T14:31:34;98789.94;;;14.95;30.88
76216;BME280;65010;50.190;18.930;2024-02-14T14:34:41;98784.41;;;14.68;31.38
76216;BME280;65010;50.190;18.930;2024-02-14T14:37:47;98779.47;;;14.65;31.81
76216;BME280;65010;50.190;18.930;2024-02-14T14:40:57;98773.81;;;14.47;31.83
76216;BME280;65010;50.190;18.930;2024-02-14T14:44:04;98762.84;;;14.28;32.27
76216;BME280;65010;50.190;18.930;2024-02-14T14:47:10;98769.06;;;14.21;32.58
76216;BME280;65010;50.190;18.930;2024-02-14T14:50:16;98759.81;;;14.10;32.75
76216;BME280;65010;50.190;18.930;2024-02-14T14:53:24;98761.19;;;13.91;33.26
76216;BME280;65010;50.190;18.930;2024-02-14T14:56:32;98759.84;;;13.80;33.59
76216;BME280;65010;50.190;18.930;2024-02-14T14:59:39;98761.34;;;13.68;33.90
76216;BME280;65010;50.190;18.930;2024-02-14T15:02:48;98765.03;;;13.59;34.11
76216;BME280;65010;50.190;18.930;2024-02-14T15:05:55;98756.84;;;13.54;34.24
76216;BME280;65010;50.190;18.930;2024-02-14T15:09:01;98761.00;;;13.33;34.64
76216;BME280;65010;50.190;18.930;2024-02-14T15:12:11;98766.59;;;13.23;35.15
76216;BME280;65010;50.190;18.930;2024-02-14T15:15:18;98767.31;;;13.17;35.41
76216;BME280;65010;50.190;18.930;2024-02-14T15:18:27;98767.09;;;13.04;35.63
76216;BME280;65010;50.190;18.930;2024-02-14T15:21:33;98759.88;;;12.98;35.89
76216;BME280;65010;50.190;18.930;2024-02-14T15:24:40;98761.88;;;12.96;36.10
76216;BME280;65010;50.190;18.930;2024-02-14T15:27:48;98753.97;;;12.96;36.18
76216;BME280;65010;50.190;18.930;2024-02-14T15:31:00;98751.59;;;12.86;36.15
76216;BME280;65010;50.190;18.930;2024-02-14T15:34:18;98750.66;;;12.79;36.48
76216;BME280;65010;50.190;18.930;2024-02-14T15:37:25;98746.63;;;12.68;36.79
76216;BME280;65010;50.190;18.930;2024-02-14T15:40:31;98740.94;;;12.56;37.24
76216;BME280;65010;50.190;18.930;2024-02-14T15:43:41;98742.38;;;12.36;37.59
76216;BME280;65010;50.190;18.930;2024-02-14T15:46:47;98753.09;;;12.11;37.73
76216;BME280;65010;50.190;18.930;2024-02-14T15:49:54;98753.47;;;12.00;38.17
76216;BME280;65010;50.190;18.930;2024-02-14T15:53:01;98762.88;;;11.94;38.58
76216;BME280;65010;50.190;18.930;2024-02-14T15:56:08;98760.81;;;11.81;38.67
76216;BME280;65010;50.190;18.930;2024-02-14T15:59:18;98754.81;;;11.64;38.82
76216;BME280;65010;50.190;18.930;2024-02-14T16:02:25;98770.31;;;11.43;39.35
76216;BME280;65010;50.190;18.930;2024-02-14T16:05:31;98775.78;;;11.17;39.89
76216;BME280;65010;50.190;18.930;2024-02-14T16:08:38;98781.56;;;11.04;40.25
76216;BME280;65010;50.190;18.930;2024-02-14T16:11:44;98782.19;;;10.98;40.48
76216;BME280;65010;50.190;18.930;2024-02-14T16:14:53;98781.88;;;10.93;40.63
76216;BME280;65010;50.190;18.930;2024-02-14T16:18:00;98782.53;;;10.86;40.84
76216;BME280;65010;50.190;18.930;2024-02-14T16:21:06;98776.63;;;10.84;41.15
76216;BME280;65010;50.190;18.930;2024-02-14T16:24:12;98777.44;;;10.77;41.44
76216;BME280;65010;50.190;18.930;2024-02-14T16:27:20;98785.84;;;10.72;41.52